| time (UTC) | temp F | wind direction | speed MPH | gust MPH | rain 1hr in | rain 24hr in | rain mn in | humidity % | barometer mb |
| 20260507103338 | 50 | 72 | 3.0 | 0.0 | 0.00 | 0.00 | 0.00 | 66 | 1013.6 |
| 20260507102345 | 50 | 69 | 3.0 | 0.0 | 0.00 | 0.00 | 0.00 | 66 | 1013.6 |
| 20260507101332 | 49 | 43 | 1.0 | 0.0 | 0.00 | 0.00 | 0.00 | 65 | 1013.5 |
| 20260507100336 | 50 | 43 | 3.0 | 0.0 | 0.00 | 0.00 | 0.00 | 64 | 1013.6 |
| 20260507095341 | 50 | 59 | 2.0 | 0.0 | 0.00 | 0.00 | 0.00 | 63 | 1013.2 |
| 20260507094329 | 51 | 163 | 3.0 | 0.0 | 0.00 | 0.00 | 0.00 | 62 | 1013.2 |
| 20260507093356 | 52 | 169 | 5.0 | 0.0 | 0.00 | 0.00 | 0.00 | 62 | 1012.9 |
| 20260507092342 | 51 | 176 | 7.0 | 0.0 | 0.00 | 0.00 | 0.00 | 62 | 1013.3 |
| 20260507091327 | 51 | 193 | 4.0 | 0.0 | 0.00 | 0.00 | 0.00 | 62 | 1013.1 |
| 20260507090331 | 52 | 198 | 5.0 | 0.0 | 0.00 | 0.00 | 0.00 | 60 | 1012.8 |
| 20260507085334 | 53 | 191 | 5.0 | 0.0 | 0.00 | 0.00 | 0.00 | 60 | 1012.6 |
| 20260507084341 | 53 | 192 | 5.0 | 0.0 | 0.00 | 0.00 | 0.00 | 59 | 1012.5 |
| 20260507083325 | 54 | 196 | 3.0 | 0.0 | 0.00 | 0.00 | 0.00 | 57 | 1012.5 |
| 20260507082330 | 55 | 146 | 2.0 | 0.0 | 0.00 | 0.00 | 0.00 | 55 | 1013.1 |
| 20260507081334 | 58 | 28 | 2.0 | 0.0 | 0.00 | 0.00 | 0.00 | 52 | 1012.8 |
| 20260507080342 | 58 | 28 | 2.0 | 0.0 | 0.00 | 0.00 | 0.00 | 51 | 1012.9 |
| 20260507075405 | 58 | 96 | 1.0 | 0.0 | 0.00 | 0.00 | 0.00 | 51 | 1012.6 |
| 20260507074348 | 58 | 257 | 2.0 | 0.0 | 0.00 | 0.00 | 0.00 | 51 | 1012.6 |
| 20260507073331 | 59 | 328 | 2.0 | 0.0 | 0.00 | 0.00 | 0.00 | 51 | 1013.4 |
| 20260507072335 | 59 | 310 | 3.0 | 0.0 | 0.00 | 0.00 | 0.00 | 52 | 1012.7 |
| 20260507071324 | 58 | 354 | 3.0 | 0.0 | 0.00 | 0.00 | 0.00 | 53 | 1012.7 |
| 20260507070329 | 57 | 277 | 4.0 | 0.0 | 0.00 | 0.00 | 0.00 | 54 | 1012.6 |
| 20260507065333 | 57 | 276 | 7.0 | 0.0 | 0.00 | 0.00 | 0.00 | 54 | 1013.3 |
| 20260507064337 | 57 | 311 | 7.0 | 0.0 | 0.00 | 0.00 | 0.00 | 54 | 1013.2 |
| 20260507063401 | 58 | 295 | 6.0 | 0.0 | 0.00 | 0.00 | 0.00 | 53 | 1012.9 |
| 20260507062328 | 59 | 321 | 8.0 | 0.0 | 0.00 | 0.00 | 0.00 | 50 | 1012.9 |
| 20260507061331 | 59 | 338 | 4.0 | 0.0 | 0.00 | 0.00 | 0.00 | 49 | 1012.6 |
| 20260507060336 | 60 | 272 | 9.0 | 0.0 | 0.00 | 0.00 | 0.00 | 47 | 1012.8 |
| 20260507055400 | 60 | 238 | 11.0 | 0.0 | 0.00 | 0.00 | 0.00 | 46 | 1011.8 |
| 20260507054326 | 61 | 250 | 11.0 | 0.0 | 0.00 | 0.00 | 0.00 | 43 | 1011.7 |
| 20260507053350 | 62 | 250 | 14.0 | 0.0 | 0.00 | 0.00 | 0.00 | 42 | 1012.1 |
| 20260507052353 | 62 | 257 | 9.0 | 0.0 | 0.00 | 0.00 | 0.00 | 42 | 1012.0 |
| 20260507051336 | 61 | 252 | 10.0 | 0.0 | 0.00 | 0.00 | 0.00 | 44 | 1012.0 |
| 20260507050338 | 61 | 302 | 10.0 | 0.0 | 0.00 | 0.00 | 0.00 | 45 | 1012.1 |
| 20260507045326 | 61 | 240 | 14.0 | 0.0 | 0.00 | 0.00 | 0.00 | 45 | 1011.6 |
| 20260507044329 | 61 | 256 | 17.0 | 0.0 | 0.00 | 0.00 | 0.00 | 45 | 1011.6 |
| 20260507043334 | 62 | 250 | 16.0 | 0.0 | 0.00 | 0.00 | 0.00 | 43 | 1012.4 |
| 20260507042358 | 61 | 276 | 13.0 | 0.0 | 0.00 | 0.00 | 0.00 | 46 | 1012.8 |
| 20260507041401 | 60 | 227 | 9.0 | 0.0 | 0.00 | 0.00 | 0.00 | 47 | 1012.0 |
| 20260507040328 | 60 | 248 | 6.0 | 0.0 | 0.00 | 0.00 | 0.00 | 46 | 1012.9 |
| 20260507035335 | 61 | 277 | 6.0 | 0.0 | 0.00 | 0.00 | 0.00 | 45 | 1012.5 |
| 20260507034339 | 61 | 296 | 9.0 | 0.0 | 0.00 | 0.00 | 0.00 | 45 | 1012.4 |
| 20260507033326 | 61 | 295 | 10.0 | 0.0 | 0.00 | 0.00 | 0.00 | 44 | 1012.4 |
| 20260507032330 | 62 | 302 | 13.0 | 0.0 | 0.00 | 0.00 | 0.00 | 41 | 1012.3 |
| 20260507031354 | 62 | 291 | 12.0 | 0.0 | 0.00 | 0.00 | 0.00 | 40 | 1012.2 |
| 20260507030337 | 62 | 279 | 7.0 | 0.0 | 0.00 | 0.00 | 0.00 | 38 | 1011.9 |
| 20260507025400 | 63 | 299 | 9.0 | 0.0 | 0.00 | 0.00 | 0.00 | 37 | 1011.6 |
| 20260507024347 | 64 | 304 | 12.0 | 0.0 | 0.00 | 0.00 | 0.00 | 36 | 1011.3 |
| 20260507023330 | 65 | 304 | 12.0 | 0.0 | 0.00 | 0.00 | 0.00 | 35 | 1011.3 |
| 20260507022334 | 66 | 304 | 16.0 | 0.0 | 0.00 | 0.00 | 0.00 | 33 | 1011.7 |
| 20260507021322 | 67 | 309 | 13.0 | 0.0 | 0.00 | 0.00 | 0.00 | 33 | 1011.6 |
| 20260507020334 | 67 | 294 | 13.0 | 0.0 | 0.00 | 0.00 | 0.00 | 34 | 1012.5 |
| 20260507015358 | 68 | 323 | 15.0 | 0.0 | 0.00 | 0.00 | 0.00 | 32 | 1011.3 |
| 20260507014342 | 68 | 329 | 16.0 | 0.0 | 0.00 | 0.00 | 0.00 | 32 | 1011.2 |
| 20260507013345 | 68 | 322 | 17.0 | 0.0 | 0.00 | 0.00 | 0.00 | 31 | 1011.2 |
| 20260507012329 | 68 | 309 | 16.0 | 0.0 | 0.00 | 0.00 | 0.00 | 31 | 1011.1 |
| 20260507011337 | 69 | 307 | 19.0 | 0.0 | 0.00 | 0.00 | 0.00 | 30 | 1011.1 |
| 20260507010342 | 70 | 311 | 18.0 | 0.0 | 0.00 | 0.00 | 0.00 | 29 | 1012.1 |
| 20260507005326 | 70 | 307 | 19.0 | 0.0 | 0.00 | 0.00 | 0.00 | 29 | 1011.1 |
| 20260507004330 | 70 | 313 | 20.0 | 0.0 | 0.00 | 0.00 | 0.00 | 29 | 1011.2 |
| 20260507003358 | 72 | 325 | 19.0 | 0.0 | 0.00 | 0.00 | 0.00 | 27 | 1010.9 |
| 20260507002339 | 71 | 295 | 17.0 | 0.0 | 0.00 | 0.00 | 0.00 | 28 | 1010.9 |
| 20260507001326 | 72 | 301 | 15.0 | 0.0 | 0.00 | 0.00 | 0.00 | 28 | 1010.9 |
| 20260507000331 | 71 | 283 | 16.0 | 0.0 | 0.00 | 0.00 | 0.00 | 28 | 1010.9 |
| 20260506235339 | 70 | 287 | 17.0 | 0.0 | 0.00 | 0.00 | 0.00 | 29 | 1011.2 |
| 20260506234403 | 71 | 312 | 17.0 | 0.0 | 0.00 | 0.00 | 0.00 | 28 | 1011.2 |
| 20260506233326 | 72 | 302 | 20.0 | 0.0 | 0.00 | 0.00 | 0.00 | 28 | 1011.0 |
| 20260506232351 | 71 | 337 | 19.0 | 0.0 | 0.00 | 0.00 | 0.00 | 27 | 1011.5 |
| 20260506231334 | 71 | 315 | 19.0 | 0.0 | 0.00 | 0.00 | 0.00 | 28 | 1011.6 |
| 20260506230341 | 70 | 319 | 11.0 | 0.0 | 0.00 | 0.00 | 0.00 | 29 | 1011.8 |
| 20260506225345 | 69 | 302 | 7.0 | 0.0 | 0.00 | 0.00 | 0.00 | 29 | 1012.1 |
| 20260506224348 | 69 | 79 | 8.0 | 0.0 | 0.00 | 0.00 | 0.00 | 30 | 1012.3 |
| 20260506223330 | 69 | 92 | 6.0 | 0.0 | 0.00 | 0.00 | 0.00 | 30 | 1012.3 |
| 20260506222338 | 67 | 304 | 9.0 | 0.0 | 0.00 | 0.00 | 0.00 | 30 | 1012.3 |
| 20260506221326 | 67 | 87 | 9.0 | 0.0 | 0.00 | 0.00 | 0.00 | 31 | 1012.3 |
| 20260506220329 | 66 | 102 | 11.0 | 0.0 | 0.00 | 0.00 | 0.00 | 31 | 1012.5 |
| 20260506215333 | 66 | 88 | 13.0 | 0.0 | 0.00 | 0.00 | 0.00 | 31 | 1013.3 |
| 20260506214357 | 66 | 91 | 11.0 | 0.0 | 0.00 | 0.00 | 0.00 | 32 | 1013.5 |
| 20260506213327 | 66 | 92 | 13.0 | 0.0 | 0.00 | 0.00 | 0.00 | 32 | 1013.7 |
| 20260506212354 | 66 | 85 | 8.0 | 0.0 | 0.00 | 0.00 | 0.00 | 31 | 1013.8 |
| 20260506211338 | 65 | 109 | 6.0 | 0.0 | 0.00 | 0.00 | 0.00 | 31 | 1013.5 |
| 20260506210342 | 65 | 98 | 7.0 | 0.0 | 0.00 | 0.00 | 0.00 | 31 | 1013.7 |
| 20260506205351 | 64 | 109 | 11.0 | 0.0 | 0.00 | 0.00 | 0.00 | 31 | 1014.2 |
| 20260506204355 | 63 | 86 | 11.0 | 0.0 | 0.00 | 0.00 | 0.00 | 31 | 1014.4 |
| 20260506203338 | 63 | 95 | 8.0 | 0.0 | 0.00 | 0.00 | 0.00 | 31 | 1014.6 |
| 20260506202343 | 62 | 121 | 10.0 | 0.0 | 0.00 | 0.00 | 0.00 | 31 | 1014.5 |
| 20260506201328 | 62 | 87 | 8.0 | 0.0 | 0.00 | 0.00 | 0.00 | 31 | 1014.6 |
| 20260506200336 | 61 | 69 | 7.0 | 0.0 | 0.00 | 0.00 | 0.00 | 31 | 1014.7 |
| 20260506195341 | 61 | 62 | 8.0 | 0.0 | 0.00 | 0.00 | 0.00 | 31 | 1015.3 |
| 20260506194325 | 60 | 62 | 9.0 | 0.0 | 0.00 | 0.00 | 0.00 | 31 | 1015.6 |
| 20260506193330 | 59 | 111 | 8.0 | 0.0 | 0.00 | 0.00 | 0.00 | 31 | 1015.2 |
| 20260506192338 | 59 | 123 | 7.0 | 0.0 | 0.00 | 0.00 | 0.00 | 31 | 1015.5 |
| 20260506191325 | 58 | 93 | 5.0 | 0.0 | 0.00 | 0.00 | 0.00 | 32 | 1015.6 |
| 20260506190329 | 58 | 94 | 7.0 | 0.0 | 0.00 | 0.00 | 0.00 | 32 | 1015.9 |
| 20260506185333 | 57 | 115 | 8.0 | 0.0 | 0.00 | 0.00 | 0.00 | 32 | 1016.6 |
| 20260506184342 | 56 | 134 | 5.0 | 0.0 | 0.00 | 0.00 | 0.00 | 33 | 1016.2 |
| 20260506183327 | 56 | 121 | 8.0 | 0.0 | 0.00 | 0.00 | 0.00 | 33 | 1016.4 |
| 20260506182331 | 55 | 74 | 4.0 | 0.0 | 0.00 | 0.00 | 0.00 | 34 | 1016.7 |
| 20260506181355 | 54 | 135 | 6.0 | 0.0 | 0.00 | 0.00 | 0.00 | 36 | 1017.1 |
| 20260506180343 | 52 | 67 | 7.0 | 0.0 | 0.00 | 0.00 | 0.00 | 36 | 1016.5 |
| 20260506175347 | 52 | 117 | 8.0 | 0.0 | 0.00 | 0.00 | 0.00 | 36 | 1017.4 |
| 20260506174350 | 52 | 161 | 7.0 | 0.0 | 0.00 | 0.00 | 0.00 | 37 | 1017.5 |
| 20260506173332 | 51 | 118 | 7.0 | 0.0 | 0.00 | 0.00 | 0.00 | 38 | 1018.0 |
| 20260506172337 | 50 | 74 | 5.0 | 0.0 | 0.00 | 0.00 | 0.00 | 40 | 1018.2 |
| 20260506171324 | 50 | 106 | 6.0 | 0.0 | 0.00 | 0.00 | 0.00 | 41 | 1018.4 |
| 20260506170331 | 48 | 161 | 6.0 | 0.0 | 0.00 | 0.00 | 0.00 | 42 | 1018.0 |
| 20260506165355 | 47 | 89 | 7.0 | 0.0 | 0.00 | 0.00 | 0.00 | 43 | 1018.0 |
| 20260506164338 | 47 | 117 | 6.0 | 0.0 | 0.00 | 0.00 | 0.00 | 44 | 1018.5 |
| 20260506163341 | 46 | 143 | 5.0 | 0.0 | 0.00 | 0.00 | 0.00 | 46 | 1018.7 |
| 20260506162329 | 45 | 108 | 6.0 | 0.0 | 0.00 | 0.00 | 0.00 | 47 | 1019.2 |
| 20260506161335 | 45 | 123 | 7.0 | 0.0 | 0.00 | 0.00 | 0.00 | 49 | 1019.4 |
| 20260506160340 | 44 | 75 | 6.0 | 0.0 | 0.00 | 0.00 | 0.00 | 51 | 1019.0 |
| 20260506155344 | 43 | 101 | 5.0 | 0.0 | 0.00 | 0.00 | 0.00 | 54 | 1019.4 |
| 20260506154332 | 41 | 123 | 4.0 | 0.0 | 0.00 | 0.00 | 0.00 | 56 | 1019.9 |
| 20260506153336 | 40 | 107 | 3.0 | 0.0 | 0.00 | 0.00 | 0.00 | 59 | 1020.2 |
| 20260506152341 | 39 | 93 | 4.0 | 0.0 | 0.00 | 0.00 | 0.00 | 61 | 1019.6 |
| 20260506151328 | 39 | 83 | 4.0 | 0.0 | 0.00 | 0.00 | 0.00 | 63 | 1019.7 |
| 20260506150336 | 38 | 86 | 5.0 | 0.0 | 0.00 | 0.00 | 0.00 | 66 | 1019.8 |
| 20260506145327 | 37 | 92 | 4.0 | 0.0 | 0.00 | 0.00 | 0.00 | 68 | 1020.4 |
| 20260506144351 | 35 | 93 | 5.0 | 0.0 | 0.00 | 0.00 | 0.00 | 70 | 1020.0 |
| 20260506143334 | 34 | 81 | 6.0 | 0.0 | 0.00 | 0.00 | 0.00 | 72 | 1020.1 |
| 20260506142341 | 33 | 82 | 5.0 | 0.0 | 0.00 | 0.00 | 0.00 | 74 | 1020.5 |
| 20260506141325 | 33 | 97 | 5.0 | 0.0 | 0.00 | 0.00 | 0.00 | 76 | 1020.7 |
| 20260506140328 | 32 | 115 | 4.0 | 0.0 | 0.00 | 0.00 | 0.00 | 77 | 1019.7 |
| 20260506135332 | 30 | 114 | 4.0 | 0.0 | 0.00 | 0.00 | 0.00 | 78 | 1020.1 |
| 20260506134341 | 29 | 90 | 5.0 | 0.0 | 0.00 | 0.00 | 0.00 | 79 | 1020.5 |
| 20260506133328 | 29 | 94 | 3.0 | 0.0 | 0.00 | 0.00 | 0.00 | 80 | 1020.6 |
| 20260506132353 | 27 | 96 | 3.0 | 0.0 | 0.00 | 0.00 | 0.00 | 80 | 1020.8 |
| 20260506131335 | 26 | 100 | 1.0 | 0.0 | 0.00 | 0.00 | 0.00 | 80 | 1020.7 |
| 20260506130339 | 25 | 100 | 1.0 | 0.0 | 0.00 | 0.00 | 0.00 | 79 | 1020.2 |
| 20260506125328 | 24 | 100 | 2.0 | 0.0 | 0.00 | 0.00 | 0.00 | 80 | 1020.2 |
| 20260506124352 | 24 | 98 | 1.0 | 0.0 | 0.00 | 0.00 | 0.00 | 79 | 1020.1 |
| 20260506123338 | 23 | 98 | 1.0 | 0.0 | 0.00 | 0.00 | 0.00 | 79 | 1020.0 |
| 20260506122341 | 21 | 99 | 2.0 | 0.0 | 0.00 | 0.00 | 0.00 | 78 | 1020.4 |
| 20260506121329 | 22 | 170 | 2.0 | 0.0 | 0.00 | 0.00 | 0.00 | 78 | 1020.4 |
| 20260506120333 | 24 | 107 | 3.0 | 0.0 | 0.00 | 0.00 | 0.00 | 78 | 1020.1 |
| 20260506115326 | 25 | 99 | 4.0 | 0.0 | 0.00 | 0.00 | 0.00 | 78 | 1020.6 |
| 20260506114330 | 25 | 123 | 3.0 | 0.0 | 0.00 | 0.00 | 0.00 | 78 | 1020.6 |
| 20260506113355 | 25 | 129 | 4.0 | 0.0 | 0.00 | 0.00 | 0.00 | 78 | 1020.6 |
| 20260506112341 | 25 | 122 | 4.0 | 0.0 | 0.00 | 0.00 | 0.00 | 77 | 1020.6 |
| 20260506111325 | 24 | 125 | 3.0 | 0.0 | 0.00 | 0.00 | 0.00 | 77 | 1020.7 |
| 20260506110330 | 23 | 105 | 2.0 | 0.0 | 0.00 | 0.00 | 0.00 | 76 | 1020.6 |
| 20260506105355 | 25 | 105 | 2.0 | 0.0 | 0.00 | 0.00 | 0.00 | 76 | 1020.0 |
| 20260506104359 | 26 | 101 | 3.0 | 0.0 | 0.00 | 0.00 | 0.00 | 76 | 1020.1 |